Terminal Aerodrome Forecast
Issued by NWS

Home | Current Version | Previous Version | Text Only | Print | Product List | Glossary On
Versions: 1 2 3 4 5 6 7 8 9 10 11 12 13
345
FTAK31 PAJN 282327
TAFAPG
TAF
PAPG 282327Z 2900/2924 10010KT 6SM -RA SCT025 OVC035 WS020/15025KT
     FM290400 VRB06KT P6SM -SHRA SCT025 OVC040
     FM290700 24006KT P6SM -SHRA SCT004 SCT025 OVC040
     FM291700 06005KT P6SM -SHRA SCT025 BKN050
      AMD LTD TO CLD VIS AND WIND 2906/2915=

USA.gov is the U.S. government's official web portal to all federal, state and local government web resources and services.